CMP134 MPTO-TNCM
Flight info
| Callsign | CMP134 |
|---|---|
| Flight time | 2h 40m |
| Altitude | 35000 |
| Route | EGETA3A EGETA DCT PONPO DCT BOGAL DCT SCAPA L335 MLIZA L204 GOUDA |
| Aircraft | B738/M-SDE2E3FGHIRWXY/LB1 |
Departure
| Time | 2026-05-07 13:56 |
|---|---|
| Airport | Tocumen International Airport (MPTO) |
Arrival
| Time | 2026-05-07 16:37 |
|---|---|
| Airport | Princess Juliana International Airport (TNCM) |
| Time | Latitude | Longitude | Altitude | Speed | Heading |
|---|---|---|---|---|---|
| 2026-05-07 13:48 | 9.06867 | -79.38482 | 29 ft | 0 kts | 216° |
| 2026-05-07 13:50 | 9.06869 | -79.38481 | 29 ft | 2 kts | 216° |
| 2026-05-07 13:51 | 9.06882 | -79.38471 | 29 ft | 2 kts | 218° |
| 2026-05-07 13:51 | 9.06895 | -79.38460 | 29 ft | 2 kts | 224° |
| 2026-05-07 13:51 | 9.06905 | -79.38447 | 29 ft | 2 kts | 248° |
| 2026-05-07 13:51 | 9.06905 | -79.38433 | 29 ft | 1 kts | 295° |
| 2026-05-07 13:52 | 9.06904 | -79.38430 | 29 ft | 0 kts | 295° |
| 2026-05-07 13:53 | 9.06905 | -79.38431 | 29 ft | 0 kts | 295° |
| 2026-05-07 13:53 | 9.06920 | -79.38458 | 29 ft | 10 kts | 313° |
| 2026-05-07 13:53 | 9.07011 | -79.38436 | 29 ft | 17 kts | 29° |
| 2026-05-07 13:53 | 9.07120 | -79.38391 | 29 ft | 17 kts | 348° |
| 2026-05-07 13:54 | 9.07193 | -79.38479 | 30 ft | 16 kts | 301° |
| 2026-05-07 13:54 | 9.07249 | -79.38576 | 33 ft | 16 kts | 292° |
| 2026-05-07 13:54 | 9.07275 | -79.38673 | 43 ft | 14 kts | 285° |
| 2026-05-07 13:54 | 9.07338 | -79.38698 | 44 ft | 11 kts | 40° |
| 2026-05-07 13:55 | 9.07376 | -79.38674 | 46 ft | 8 kts | 31° |
| 2026-05-07 13:55 | 9.07629 | -79.38521 | 48 ft | 77 kts | 30° |
| 2026-05-07 13:55 | 9.08283 | -79.38129 | 44 ft | 139 kts | 31° |
| 2026-05-07 13:55 | 9.09254 | -79.37546 | 180 ft | 176 kts | 30° |
| 2026-05-07 13:56 | 9.10364 | -79.36872 | 673 ft | 195 kts | 31° |
| 2026-05-07 13:56 | 9.11498 | -79.36135 | 1398 ft | 198 kts | 37° |
| 2026-05-07 13:56 | 9.12623 | -79.35230 | 1805 ft | 218 kts | 39° |
| 2026-05-07 13:56 | 9.13864 | -79.34198 | 2017 ft | 244 kts | 39° |
| 2026-05-07 13:57 | 9.15229 | -79.33071 | 2472 ft | 259 kts | 39° |
| 2026-05-07 13:57 | 9.16625 | -79.31928 | 3384 ft | 258 kts | 39° |
| 2026-05-07 13:57 | 9.18042 | -79.30779 | 4172 ft | 263 kts | 39° |
| 2026-05-07 13:57 | 9.19486 | -79.29614 | 4944 ft | 268 kts | 39° |
| 2026-05-07 13:58 | 9.20954 | -79.28436 | 5739 ft | 271 kts | 39° |
| 2026-05-07 13:58 | 9.22443 | -79.27244 | 6483 ft | 275 kts | 39° |
| 2026-05-07 13:58 | 9.23933 | -79.26054 | 7196 ft | 278 kts | 39° |
| 2026-05-07 13:58 | 9.25461 | -79.24835 | 7938 ft | 281 kts | 39° |
| 2026-05-07 13:59 | 9.27007 | -79.23603 | 8678 ft | 284 kts | 40° |
| 2026-05-07 13:59 | 9.28567 | -79.22361 | 9394 ft | 287 kts | 40° |
| 2026-05-07 13:59 | 9.30146 | -79.21104 | 10091 ft | 291 kts | 40° |
| 2026-05-07 13:59 | 9.31781 | -79.19800 | 10398 ft | 310 kts | 40° |
| 2026-05-07 14:00 | 9.33536 | -79.18401 | 10551 ft | 331 kts | 40° |
| 2026-05-07 14:00 | 9.34756 | -79.17425 | 10655 ft | 345 kts | 40° |
| 2026-05-07 14:00 | 9.37353 | -79.15359 | 11048 ft | 362 kts | 40° |
| 2026-05-07 14:00 | 9.39320 | -79.13796 | 11602 ft | 365 kts | 40° |
| 2026-05-07 14:01 | 9.41324 | -79.12202 | 11912 ft | 366 kts | 40° |
| 2026-05-07 14:01 | 9.43316 | -79.10617 | 11932 ft | 365 kts | 40° |
| 2026-05-07 14:01 | 9.45124 | -79.08824 | 11923 ft | 363 kts | 58° |
| 2026-05-07 14:01 | 9.45857 | -79.07319 | 11946 ft | 360 kts | 73° |
| 2026-05-07 14:02 | 9.46240 | -79.04806 | 12201 ft | 364 kts | 89° |
| 2026-05-07 14:02 | 9.45867 | -79.01413 | 13120 ft | 363 kts | 102° |
| 2026-05-07 14:02 | 9.45486 | -78.99767 | 13543 ft | 364 kts | 103° |
| 2026-05-07 14:02 | 9.44674 | -78.96452 | 14203 ft | 368 kts | 103° |
| 2026-05-07 14:03 | 9.44053 | -78.93925 | 14670 ft | 372 kts | 103° |
| 2026-05-07 14:03 | 9.43635 | -78.92203 | 15001 ft | 374 kts | 103° |
| 2026-05-07 14:03 | 9.42826 | -78.88799 | 15635 ft | 377 kts | 102° |
| 2026-05-07 14:03 | 9.42424 | -78.87081 | 15950 ft | 379 kts | 102° |
| 2026-05-07 14:04 | 9.41820 | -78.84475 | 16416 ft | 382 kts | 102° |
| 2026-05-07 14:04 | 9.41214 | -78.81846 | 16871 ft | 385 kts | 102° |
| 2026-05-07 14:04 | 9.40406 | -78.78322 | 17471 ft | 389 kts | 102° |
| 2026-05-07 14:04 | 9.39793 | -78.75648 | 17934 ft | 392 kts | 102° |
| 2026-05-07 14:05 | 9.39376 | -78.73828 | 18234 ft | 394 kts | 102° |
| 2026-05-07 14:05 | 9.38554 | -78.70235 | 18740 ft | 397 kts | 102° |
| 2026-05-07 14:05 | 9.37927 | -78.67503 | 19159 ft | 398 kts | 102° |
| 2026-05-07 14:05 | 9.37513 | -78.65697 | 19432 ft | 400 kts | 102° |
| 2026-05-07 14:06 | 9.36667 | -78.62011 | 19917 ft | 403 kts | 102° |
| 2026-05-07 14:06 | 9.36247 | -78.60183 | 20167 ft | 404 kts | 102° |
| 2026-05-07 14:06 | 9.35394 | -78.56464 | 20667 ft | 407 kts | 101° |
| 2026-05-07 14:06 | 9.34969 | -78.54612 | 20912 ft | 408 kts | 101° |
| 2026-05-07 14:07 | 9.34115 | -78.50896 | 21393 ft | 411 kts | 101° |
| 2026-05-07 14:07 | 9.33466 | -78.48071 | 21739 ft | 413 kts | 101° |
| 2026-05-07 14:07 | 9.33026 | -78.46161 | 21964 ft | 414 kts | 101° |
| 2026-05-07 14:07 | 9.32158 | -78.42384 | 22392 ft | 417 kts | 101° |
| 2026-05-07 14:08 | 9.31722 | -78.40489 | 22610 ft | 418 kts | 101° |
| 2026-05-07 14:08 | 9.31061 | -78.37617 | 22926 ft | 420 kts | 101° |
| 2026-05-07 14:08 | 9.30171 | -78.33753 | 23354 ft | 423 kts | 101° |
| 2026-05-07 14:08 | 9.29727 | -78.31829 | 23550 ft | 424 kts | 101° |
| 2026-05-07 14:09 | 9.29056 | -78.28915 | 23782 ft | 426 kts | 101° |
| 2026-05-07 14:09 | 9.28162 | -78.25039 | 24100 ft | 429 kts | 101° |
| 2026-05-07 14:09 | 9.27783 | -78.23075 | 24244 ft | 429 kts | 95° |
| 2026-05-07 14:09 | 9.27816 | -78.19058 | 24552 ft | 428 kts | 81° |
| 2026-05-07 14:10 | 9.28164 | -78.17097 | 24714 ft | 429 kts | 76° |
| 2026-05-07 14:10 | 9.29094 | -78.14226 | 24930 ft | 430 kts | 68° |
| 2026-05-07 14:10 | 9.30591 | -78.10459 | 25219 ft | 433 kts | 68° |
| 2026-05-07 14:10 | 9.31329 | -78.08578 | 25360 ft | 434 kts | 68° |
| 2026-05-07 14:11 | 9.32794 | -78.04801 | 25632 ft | 437 kts | 68° |
| 2026-05-07 14:11 | 9.33898 | -78.01931 | 25837 ft | 439 kts | 69° |
| 2026-05-07 14:11 | 9.34645 | -77.99979 | 25980 ft | 440 kts | 69° |
| 2026-05-07 14:11 | 9.35734 | -77.97126 | 26187 ft | 442 kts | 69° |
| 2026-05-07 14:12 | 9.36842 | -77.94217 | 26379 ft | 444 kts | 68° |
| 2026-05-07 14:12 | 9.37953 | -77.91299 | 26583 ft | 445 kts | 69° |
| 2026-05-07 14:12 | 9.39071 | -77.88363 | 26775 ft | 447 kts | 69° |
| 2026-05-07 14:12 | 9.40191 | -77.85421 | 26975 ft | 449 kts | 69° |
| 2026-05-07 14:13 | 9.41317 | -77.82463 | 27166 ft | 451 kts | 69° |
| 2026-05-07 14:13 | 9.42441 | -77.79510 | 27352 ft | 452 kts | 69° |
| 2026-05-07 14:13 | 9.43573 | -77.76533 | 27536 ft | 454 kts | 69° |
| 2026-05-07 14:13 | 9.44691 | -77.73594 | 27715 ft | 456 kts | 69° |
| 2026-05-07 14:14 | 9.45826 | -77.70611 | 27896 ft | 457 kts | 69° |
| 2026-05-07 14:14 | 9.46972 | -77.67596 | 28076 ft | 459 kts | 69° |
| 2026-05-07 14:14 | 9.48120 | -77.64574 | 28247 ft | 460 kts | 69° |
| 2026-05-07 14:14 | 9.49271 | -77.61544 | 28415 ft | 462 kts | 69° |
| 2026-05-07 14:15 | 9.50425 | -77.58505 | 28581 ft | 464 kts | 68° |
| 2026-05-07 14:15 | 9.51584 | -77.55452 | 28731 ft | 465 kts | 68° |
| 2026-05-07 14:15 | 9.52748 | -77.52386 | 28957 ft | 465 kts | 68° |
| 2026-05-07 14:15 | 9.53892 | -77.49370 | 29230 ft | 464 kts | 68° |
| 2026-05-07 14:16 | 9.55048 | -77.46324 | 29505 ft | 464 kts | 68° |
| 2026-05-07 14:16 | 9.56211 | -77.43271 | 29736 ft | 464 kts | 68° |
| 2026-05-07 14:16 | 9.57578 | -77.40315 | 29933 ft | 464 kts | 59° |
| 2026-05-07 14:16 | 9.59357 | -77.37586 | 30172 ft | 464 kts | 55° |
| 2026-05-07 14:17 | 9.61195 | -77.34907 | 30444 ft | 462 kts | 55° |
| 2026-05-07 14:17 | 9.63018 | -77.32238 | 30746 ft | 460 kts | 56° |
| 2026-05-07 14:17 | 9.64825 | -77.29568 | 30977 ft | 460 kts | 56° |
| 2026-05-07 14:17 | 9.66624 | -77.26887 | 31165 ft | 460 kts | 56° |
| 2026-05-07 14:18 | 9.68393 | -77.24235 | 31381 ft | 460 kts | 56° |
| 2026-05-07 14:18 | 9.70180 | -77.21545 | 31637 ft | 459 kts | 56° |
| 2026-05-07 14:18 | 9.71960 | -77.18859 | 31899 ft | 458 kts | 56° |
| 2026-05-07 14:18 | 9.73736 | -77.16176 | 32145 ft | 458 kts | 56° |
| 2026-05-07 14:19 | 9.75511 | -77.13494 | 32381 ft | 458 kts | 56° |
| 2026-05-07 14:19 | 9.77283 | -77.10815 | 32625 ft | 458 kts | 56° |
| 2026-05-07 14:19 | 9.79056 | -77.08136 | 32881 ft | 457 kts | 56° |
| 2026-05-07 14:19 | 9.80825 | -77.05463 | 33136 ft | 456 kts | 56° |
| 2026-05-07 14:20 | 9.82593 | -77.02790 | 33386 ft | 456 kts | 55° |
| 2026-05-07 14:20 | 9.84336 | -77.00156 | 33633 ft | 456 kts | 55° |
| 2026-05-07 14:20 | 9.86099 | -76.97489 | 33894 ft | 455 kts | 55° |
| 2026-05-07 14:20 | 9.87861 | -76.94826 | 34122 ft | 455 kts | 55° |
| 2026-05-07 14:21 | 9.89621 | -76.92163 | 34310 ft | 454 kts | 55° |
| 2026-05-07 14:21 | 9.91381 | -76.89500 | 34517 ft | 454 kts | 55° |
| 2026-05-07 14:21 | 9.93140 | -76.86839 | 34733 ft | 454 kts | 55° |
| 2026-05-07 14:21 | 9.94894 | -76.84184 | 34936 ft | 453 kts | 55° |
| 2026-05-07 14:22 | 9.97217 | -76.80668 | 34932 ft | 452 kts | 55° |
| 2026-05-07 14:22 | 10.00120 | -76.76270 | 34936 ft | 451 kts | 55° |
| 2026-05-07 14:23 | 10.03605 | -76.70991 | 34941 ft | 450 kts | 55° |
| 2026-05-07 14:23 | 10.07081 | -76.65721 | 34937 ft | 449 kts | 55° |
| 2026-05-07 14:24 | 10.10554 | -76.60454 | 34933 ft | 449 kts | 55° |
| 2026-05-07 14:24 | 10.13999 | -76.55227 | 34937 ft | 449 kts | 55° |
| 2026-05-07 14:25 | 10.17471 | -76.49957 | 34936 ft | 449 kts | 55° |
| 2026-05-07 14:25 | 10.20945 | -76.44682 | 34933 ft | 450 kts | 55° |
| 2026-05-07 14:26 | 10.24424 | -76.39397 | 34930 ft | 451 kts | 55° |
| 2026-05-07 14:26 | 10.27886 | -76.34135 | 34931 ft | 451 kts | 55° |
| 2026-05-07 14:27 | 10.31370 | -76.28836 | 34931 ft | 451 kts | 55° |
| 2026-05-07 14:27 | 10.34844 | -76.23551 | 34928 ft | 449 kts | 55° |
| 2026-05-07 14:28 | 10.38305 | -76.18283 | 34925 ft | 447 kts | 55° |
| 2026-05-07 14:28 | 10.41726 | -76.13073 | 34930 ft | 445 kts | 55° |
| 2026-05-07 14:29 | 10.45157 | -76.07845 | 34924 ft | 444 kts | 55° |
| 2026-05-07 14:29 | 10.48573 | -76.02638 | 34931 ft | 442 kts | 55° |
| 2026-05-07 14:30 | 10.51981 | -75.97440 | 34931 ft | 442 kts | 55° |
| 2026-05-07 14:30 | 10.55385 | -75.92248 | 34928 ft | 441 kts | 55° |
| 2026-05-07 14:31 | 10.58762 | -75.87093 | 34925 ft | 442 kts | 55° |
| 2026-05-07 14:31 | 10.62168 | -75.81892 | 34932 ft | 442 kts | 55° |
| 2026-05-07 14:32 | 10.65580 | -75.76679 | 34928 ft | 443 kts | 55° |
| 2026-05-07 14:32 | 10.69002 | -75.71448 | 34931 ft | 445 kts | 55° |
| 2026-05-07 14:33 | 10.72406 | -75.66242 | 34927 ft | 446 kts | 55° |
| 2026-05-07 14:33 | 10.75844 | -75.60982 | 34932 ft | 447 kts | 55° |
| 2026-05-07 14:34 | 10.79285 | -75.55714 | 34926 ft | 448 kts | 55° |
| 2026-05-07 14:34 | 10.82733 | -75.50434 | 34926 ft | 448 kts | 55° |
| 2026-05-07 14:35 | 10.86180 | -75.45152 | 34931 ft | 448 kts | 55° |
| 2026-05-07 14:35 | 10.89601 | -75.39907 | 34926 ft | 448 kts | 55° |
| 2026-05-07 14:36 | 10.93044 | -75.34626 | 34930 ft | 447 kts | 55° |
| 2026-05-07 14:36 | 10.96483 | -75.29349 | 34921 ft | 448 kts | 55° |
| 2026-05-07 14:37 | 10.99921 | -75.24071 | 34931 ft | 447 kts | 55° |
| 2026-05-07 14:37 | 11.05054 | -75.16185 | 34925 ft | 448 kts | 55° |
| 2026-05-07 14:38 | 11.08493 | -75.10898 | 34932 ft | 448 kts | 55° |
| 2026-05-07 14:38 | 11.11931 | -75.05610 | 34923 ft | 448 kts | 55° |
| 2026-05-07 14:39 | 11.15370 | -75.00318 | 34926 ft | 448 kts | 55° |
| 2026-05-07 14:39 | 11.18789 | -74.95055 | 34926 ft | 449 kts | 55° |
| 2026-05-07 14:40 | 11.22233 | -74.89750 | 34931 ft | 449 kts | 55° |
| 2026-05-07 14:40 | 11.25676 | -74.84444 | 34927 ft | 449 kts | 55° |
| 2026-05-07 14:41 | 11.29123 | -74.79128 | 34939 ft | 449 kts | 55° |
| 2026-05-07 14:41 | 11.32541 | -74.73855 | 34919 ft | 449 kts | 55° |
| 2026-05-07 14:42 | 11.35961 | -74.68574 | 34912 ft | 444 kts | 55° |
| 2026-05-07 14:42 | 11.39349 | -74.63343 | 34911 ft | 440 kts | 55° |
| 2026-05-07 14:43 | 11.42724 | -74.58130 | 34924 ft | 443 kts | 55° |
| 2026-05-07 14:43 | 11.46132 | -74.52864 | 34927 ft | 447 kts | 55° |
| 2026-05-07 14:44 | 11.49545 | -74.47584 | 34938 ft | 449 kts | 55° |
| 2026-05-07 14:44 | 11.52969 | -74.42284 | 34929 ft | 444 kts | 55° |
| 2026-05-07 14:45 | 11.56350 | -74.37047 | 34927 ft | 439 kts | 55° |
| 2026-05-07 14:45 | 11.59719 | -74.31830 | 34938 ft | 444 kts | 55° |
| 2026-05-07 14:46 | 11.63116 | -74.26566 | 34942 ft | 450 kts | 54° |
| 2026-05-07 14:46 | 11.66556 | -74.21231 | 34940 ft | 450 kts | 55° |
| 2026-05-07 14:47 | 11.69998 | -74.15891 | 34943 ft | 450 kts | 55° |
| 2026-05-07 14:47 | 11.73430 | -74.10562 | 34943 ft | 449 kts | 55° |
| 2026-05-07 14:48 | 11.76851 | -74.05249 | 34951 ft | 447 kts | 55° |
| 2026-05-07 14:48 | 11.80239 | -73.99982 | 34958 ft | 446 kts | 55° |
| 2026-05-07 14:49 | 11.83644 | -73.94688 | 34952 ft | 446 kts | 55° |
| 2026-05-07 14:49 | 11.87044 | -73.89400 | 34957 ft | 446 kts | 55° |
| 2026-05-07 14:50 | 11.90447 | -73.84103 | 34959 ft | 446 kts | 55° |
| 2026-05-07 14:50 | 11.93831 | -73.78833 | 34967 ft | 447 kts | 55° |
| 2026-05-07 14:51 | 11.97243 | -73.73516 | 34960 ft | 448 kts | 55° |
| 2026-05-07 14:51 | 12.00653 | -73.68200 | 34965 ft | 448 kts | 55° |
| 2026-05-07 14:52 | 12.04067 | -73.62876 | 34963 ft | 448 kts | 55° |
| 2026-05-07 14:52 | 12.07482 | -73.57544 | 34968 ft | 448 kts | 55° |
| 2026-05-07 14:53 | 12.10876 | -73.52243 | 34963 ft | 449 kts | 55° |
| 2026-05-07 14:53 | 12.14292 | -73.46906 | 34967 ft | 449 kts | 55° |
| 2026-05-07 14:54 | 12.17712 | -73.41559 | 34968 ft | 449 kts | 55° |
| 2026-05-07 14:54 | 12.21131 | -73.36211 | 34966 ft | 449 kts | 55° |
| 2026-05-07 14:55 | 12.24526 | -73.30898 | 34968 ft | 449 kts | 55° |
| 2026-05-07 14:55 | 12.27942 | -73.25549 | 34980 ft | 449 kts | 55° |
| 2026-05-07 14:56 | 12.31354 | -73.20202 | 34973 ft | 448 kts | 55° |
| 2026-05-07 14:56 | 12.34759 | -73.14863 | 34971 ft | 448 kts | 55° |
| 2026-05-07 14:57 | 12.38157 | -73.09533 | 34975 ft | 447 kts | 55° |
| 2026-05-07 14:57 | 12.41523 | -73.04248 | 34972 ft | 446 kts | 55° |
| 2026-05-07 14:58 | 12.44909 | -72.98931 | 34975 ft | 446 kts | 55° |
| 2026-05-07 14:58 | 12.48290 | -72.93618 | 34974 ft | 446 kts | 55° |
| 2026-05-07 14:59 | 12.51675 | -72.88298 | 34976 ft | 446 kts | 55° |
| 2026-05-07 14:59 | 12.55036 | -72.83010 | 34977 ft | 447 kts | 55° |
| 2026-05-07 15:00 | 12.58427 | -72.77673 | 34986 ft | 447 kts | 54° |
| 2026-05-07 15:00 | 12.61812 | -72.72338 | 34985 ft | 447 kts | 55° |
| 2026-05-07 15:01 | 12.65197 | -72.67008 | 34981 ft | 446 kts | 55° |
| 2026-05-07 15:01 | 12.68576 | -72.61681 | 34973 ft | 446 kts | 55° |
| 2026-05-07 15:02 | 12.71924 | -72.56395 | 34973 ft | 445 kts | 54° |
| 2026-05-07 15:02 | 12.75293 | -72.51081 | 34977 ft | 444 kts | 54° |
| 2026-05-07 15:03 | 12.78653 | -72.45769 | 34989 ft | 444 kts | 55° |
| 2026-05-07 15:03 | 12.82011 | -72.40463 | 34985 ft | 444 kts | 54° |
| 2026-05-07 15:04 | 12.85351 | -72.35180 | 34980 ft | 444 kts | 55° |
| 2026-05-07 15:04 | 12.88714 | -72.29863 | 34989 ft | 445 kts | 55° |
| 2026-05-07 15:05 | 12.92079 | -72.24536 | 34983 ft | 445 kts | 54° |
| 2026-05-07 15:05 | 12.95440 | -72.19210 | 34983 ft | 445 kts | 55° |
| 2026-05-07 15:06 | 12.98802 | -72.13882 | 34981 ft | 445 kts | 54° |
| 2026-05-07 15:06 | 13.02140 | -72.08588 | 34986 ft | 445 kts | 54° |
| 2026-05-07 15:07 | 13.05497 | -72.03259 | 34986 ft | 445 kts | 55° |
| 2026-05-07 15:07 | 13.08843 | -71.97947 | 34986 ft | 445 kts | 55° |
| 2026-05-07 15:08 | 13.12208 | -71.92602 | 34987 ft | 444 kts | 55° |
| 2026-05-07 15:08 | 13.15537 | -71.87309 | 34988 ft | 445 kts | 55° |
| 2026-05-07 15:09 | 13.18890 | -71.81974 | 34989 ft | 445 kts | 55° |
| 2026-05-07 15:09 | 13.22241 | -71.76640 | 34990 ft | 445 kts | 54° |
| 2026-05-07 15:10 | 13.25592 | -71.71304 | 34990 ft | 444 kts | 54° |
| 2026-05-07 15:10 | 13.28911 | -71.66015 | 34991 ft | 444 kts | 54° |
| 2026-05-07 15:11 | 13.32252 | -71.60686 | 34988 ft | 443 kts | 54° |
| 2026-05-07 15:11 | 13.35589 | -71.55363 | 34997 ft | 443 kts | 54° |
| 2026-05-07 15:12 | 13.38921 | -71.50042 | 34996 ft | 443 kts | 54° |
| 2026-05-07 15:12 | 13.42223 | -71.44767 | 34997 ft | 442 kts | 54° |
| 2026-05-07 15:13 | 13.45552 | -71.39447 | 34995 ft | 442 kts | 54° |
| 2026-05-07 15:13 | 13.48872 | -71.34136 | 34994 ft | 442 kts | 54° |
| 2026-05-07 15:14 | 13.52186 | -71.28832 | 35002 ft | 441 kts | 54° |
| 2026-05-07 15:14 | 13.55499 | -71.23527 | 34995 ft | 440 kts | 54° |
| 2026-05-07 15:15 | 13.58781 | -71.18267 | 34996 ft | 440 kts | 54° |
| 2026-05-07 15:15 | 13.62080 | -71.12978 | 35005 ft | 439 kts | 54° |
| 2026-05-07 15:16 | 13.65375 | -71.07692 | 35005 ft | 439 kts | 54° |
| 2026-05-07 15:16 | 13.68664 | -71.02412 | 35005 ft | 438 kts | 54° |
| 2026-05-07 15:17 | 13.71928 | -70.97168 | 35005 ft | 438 kts | 54° |
| 2026-05-07 15:17 | 13.75211 | -70.91892 | 35005 ft | 438 kts | 54° |
| 2026-05-07 15:18 | 13.78494 | -70.86611 | 35015 ft | 438 kts | 54° |
| 2026-05-07 15:18 | 13.81776 | -70.81330 | 35008 ft | 438 kts | 54° |
| 2026-05-07 15:19 | 13.85036 | -70.76080 | 35006 ft | 438 kts | 54° |
| 2026-05-07 15:19 | 13.88315 | -70.70795 | 35012 ft | 438 kts | 54° |
| 2026-05-07 15:20 | 13.91595 | -70.65508 | 35012 ft | 438 kts | 54° |
| 2026-05-07 15:20 | 13.94868 | -70.60226 | 35013 ft | 438 kts | 54° |
| 2026-05-07 15:21 | 13.98143 | -70.54939 | 35014 ft | 438 kts | 54° |
| 2026-05-07 15:21 | 14.01393 | -70.49689 | 35016 ft | 438 kts | 54° |
| 2026-05-07 15:22 | 14.04663 | -70.44403 | 35014 ft | 437 kts | 54° |
| 2026-05-07 15:22 | 14.07930 | -70.39118 | 35015 ft | 437 kts | 54° |
| 2026-05-07 15:23 | 14.11193 | -70.33837 | 35028 ft | 437 kts | 53° |
| 2026-05-07 15:23 | 14.14429 | -70.28595 | 35017 ft | 436 kts | 53° |
| 2026-05-07 15:24 | 14.17679 | -70.23330 | 35015 ft | 435 kts | 53° |
| 2026-05-07 15:24 | 14.20925 | -70.18065 | 35018 ft | 435 kts | 53° |
| 2026-05-07 15:25 | 14.24163 | -70.12811 | 35021 ft | 434 kts | 53° |
| 2026-05-07 15:25 | 14.27395 | -70.07563 | 35021 ft | 433 kts | 53° |
| 2026-05-07 15:26 | 14.30604 | -70.02350 | 35024 ft | 433 kts | 53° |
| 2026-05-07 15:26 | 14.33828 | -69.97108 | 35025 ft | 433 kts | 53° |
| 2026-05-07 15:27 | 14.37052 | -69.91863 | 35025 ft | 433 kts | 53° |
| 2026-05-07 15:27 | 14.40277 | -69.86613 | 35035 ft | 433 kts | 53° |
| 2026-05-07 15:28 | 14.43503 | -69.81359 | 35029 ft | 434 kts | 53° |
| 2026-05-07 15:28 | 14.46707 | -69.76137 | 35033 ft | 434 kts | 53° |
| 2026-05-07 15:29 | 14.49930 | -69.70879 | 35030 ft | 433 kts | 53° |
| 2026-05-07 15:29 | 14.53148 | -69.65626 | 35029 ft | 433 kts | 53° |
| 2026-05-07 15:30 | 14.56363 | -69.60376 | 35029 ft | 433 kts | 53° |
| 2026-05-07 15:30 | 14.59553 | -69.55162 | 35031 ft | 432 kts | 53° |
| 2026-05-07 15:31 | 14.62763 | -69.49913 | 35033 ft | 432 kts | 53° |
| 2026-05-07 15:31 | 14.65972 | -69.44662 | 35036 ft | 432 kts | 53° |
| 2026-05-07 15:32 | 14.69181 | -69.39406 | 35050 ft | 433 kts | 53° |
| 2026-05-07 15:32 | 14.72370 | -69.34182 | 35029 ft | 433 kts | 53° |
| 2026-05-07 15:33 | 14.75576 | -69.28925 | 35029 ft | 432 kts | 53° |
| 2026-05-07 15:33 | 14.78777 | -69.23672 | 35033 ft | 432 kts | 53° |
| 2026-05-07 15:34 | 14.81977 | -69.18418 | 35042 ft | 432 kts | 53° |
| 2026-05-07 15:34 | 14.85151 | -69.13203 | 35035 ft | 432 kts | 53° |
| 2026-05-07 15:35 | 14.88350 | -69.07945 | 35038 ft | 432 kts | 53° |
| 2026-05-07 15:35 | 14.91549 | -69.02681 | 35035 ft | 432 kts | 53° |
| 2026-05-07 15:36 | 14.94749 | -68.97414 | 35037 ft | 433 kts | 53° |
| 2026-05-07 15:36 | 14.97928 | -68.92176 | 35046 ft | 433 kts | 53° |
| 2026-05-07 15:37 | 15.01126 | -68.86904 | 35041 ft | 433 kts | 53° |
| 2026-05-07 15:37 | 15.04328 | -68.81623 | 35041 ft | 433 kts | 53° |
| 2026-05-07 15:38 | 15.07525 | -68.76345 | 35043 ft | 433 kts | 53° |
| 2026-05-07 15:38 | 15.10722 | -68.71064 | 35043 ft | 433 kts | 53° |
| 2026-05-07 15:39 | 15.13895 | -68.65820 | 35043 ft | 433 kts | 53° |
| 2026-05-07 15:39 | 15.17087 | -68.60539 | 35046 ft | 433 kts | 53° |
| 2026-05-07 15:40 | 15.20277 | -68.55259 | 35047 ft | 433 kts | 53° |
| 2026-05-07 15:40 | 15.23446 | -68.50009 | 35042 ft | 433 kts | 54° |
| 2026-05-07 15:41 | 15.26642 | -68.44714 | 35059 ft | 434 kts | 53° |
| 2026-05-07 15:41 | 15.29840 | -68.39409 | 35047 ft | 435 kts | 53° |
| 2026-05-07 15:42 | 15.33042 | -68.34094 | 35047 ft | 435 kts | 54° |
| 2026-05-07 15:42 | 15.36221 | -68.28812 | 35048 ft | 435 kts | 54° |
| 2026-05-07 15:43 | 15.39423 | -68.23490 | 35051 ft | 435 kts | 54° |
| 2026-05-07 15:43 | 15.42626 | -68.18163 | 35055 ft | 435 kts | 54° |
| 2026-05-07 15:44 | 15.45829 | -68.12832 | 35056 ft | 436 kts | 54° |
| 2026-05-07 15:44 | 15.49035 | -68.07491 | 35058 ft | 437 kts | 54° |
| 2026-05-07 15:45 | 15.52224 | -68.02176 | 35053 ft | 437 kts | 54° |
| 2026-05-07 15:45 | 15.55434 | -67.96821 | 35064 ft | 437 kts | 54° |
| 2026-05-07 15:46 | 15.60253 | -67.88775 | 35047 ft | 437 kts | 54° |
| 2026-05-07 15:47 | 15.63436 | -67.83455 | 35054 ft | 437 kts | 54° |
| 2026-05-07 15:47 | 15.66636 | -67.78103 | 35059 ft | 436 kts | 54° |
| 2026-05-07 15:48 | 15.69830 | -67.72758 | 35052 ft | 435 kts | 54° |
| 2026-05-07 15:48 | 15.73018 | -67.67418 | 35051 ft | 435 kts | 54° |
| 2026-05-07 15:49 | 15.76178 | -67.62123 | 35054 ft | 434 kts | 54° |
| 2026-05-07 15:49 | 15.79353 | -67.56796 | 35055 ft | 434 kts | 54° |
| 2026-05-07 15:50 | 15.82528 | -67.51467 | 35063 ft | 434 kts | 54° |
| 2026-05-07 15:50 | 15.85741 | -67.46156 | 35064 ft | 434 kts | 53° |
| 2026-05-07 15:51 | 15.89001 | -67.40908 | 35071 ft | 436 kts | 53° |
| 2026-05-07 15:51 | 15.92291 | -67.35614 | 35057 ft | 437 kts | 53° |
| 2026-05-07 15:52 | 15.95582 | -67.30295 | 35059 ft | 438 kts | 53° |
| 2026-05-07 15:52 | 15.98875 | -67.24960 | 35060 ft | 439 kts | 53° |
| 2026-05-07 15:53 | 16.02148 | -67.19649 | 35057 ft | 440 kts | 53° |
| 2026-05-07 15:53 | 16.05450 | -67.14287 | 35071 ft | 441 kts | 53° |
| 2026-05-07 15:54 | 16.08760 | -67.08909 | 35063 ft | 442 kts | 53° |
| 2026-05-07 15:54 | 16.12073 | -67.03522 | 35060 ft | 442 kts | 53° |
| 2026-05-07 15:55 | 16.15365 | -66.98164 | 35066 ft | 442 kts | 53° |
| 2026-05-07 15:55 | 16.18674 | -66.92776 | 35060 ft | 442 kts | 53° |
| 2026-05-07 15:56 | 16.21981 | -66.87387 | 35060 ft | 442 kts | 53° |
| 2026-05-07 15:56 | 16.25284 | -66.81999 | 35066 ft | 442 kts | 53° |
| 2026-05-07 15:57 | 16.28567 | -66.76642 | 35063 ft | 442 kts | 53° |
| 2026-05-07 15:57 | 16.31871 | -66.71246 | 35067 ft | 442 kts | 53° |
| 2026-05-07 15:58 | 16.35175 | -66.65846 | 35065 ft | 443 kts | 53° |
| 2026-05-07 15:58 | 16.38483 | -66.60435 | 35076 ft | 443 kts | 54° |
| 2026-05-07 15:59 | 16.41791 | -66.55020 | 35070 ft | 443 kts | 54° |
| 2026-05-07 15:59 | 16.45078 | -66.49636 | 35071 ft | 444 kts | 54° |
| 2026-05-07 16:00 | 16.48392 | -66.44202 | 35071 ft | 445 kts | 54° |
| 2026-05-07 16:00 | 16.51711 | -66.38757 | 35075 ft | 445 kts | 54° |
| 2026-05-07 16:01 | 16.55030 | -66.33308 | 35073 ft | 446 kts | 54° |
| 2026-05-07 16:01 | 16.58331 | -66.27884 | 35070 ft | 446 kts | 54° |
| 2026-05-07 16:02 | 16.61653 | -66.22421 | 35077 ft | 447 kts | 54° |
| 2026-05-07 16:02 | 16.64980 | -66.16946 | 35076 ft | 447 kts | 54° |
| 2026-05-07 16:03 | 16.68310 | -66.11462 | 35073 ft | 448 kts | 54° |
| 2026-05-07 16:03 | 16.71619 | -66.06006 | 35074 ft | 448 kts | 54° |
| 2026-05-07 16:04 | 16.74952 | -66.00507 | 35074 ft | 449 kts | 54° |
| 2026-05-07 16:04 | 16.78287 | -65.95002 | 35073 ft | 449 kts | 54° |
| 2026-05-07 16:05 | 16.81621 | -65.89494 | 35070 ft | 449 kts | 54° |
| 2026-05-07 16:05 | 16.84959 | -65.83974 | 35080 ft | 450 kts | 54° |
| 2026-05-07 16:06 | 16.88278 | -65.78481 | 35074 ft | 450 kts | 54° |
| 2026-05-07 16:06 | 16.91617 | -65.72952 | 35083 ft | 450 kts | 54° |
| 2026-05-07 16:07 | 16.94960 | -65.67411 | 35070 ft | 451 kts | 54° |
| 2026-05-07 16:07 | 16.98295 | -65.61879 | 35073 ft | 450 kts | 54° |
| 2026-05-07 16:08 | 17.01631 | -65.56340 | 35074 ft | 450 kts | 54° |
| 2026-05-07 16:08 | 17.04943 | -65.50838 | 35078 ft | 450 kts | 54° |
| 2026-05-07 16:09 | 17.08278 | -65.45293 | 35074 ft | 450 kts | 54° |
| 2026-05-07 16:09 | 17.11610 | -65.39747 | 35076 ft | 450 kts | 54° |
| 2026-05-07 16:10 | 17.14939 | -65.34202 | 35076 ft | 451 kts | 54° |
| 2026-05-07 16:10 | 17.16586 | -65.31457 | 34922 ft | 453 kts | 54° |
| 2026-05-07 16:10 | 17.18273 | -65.28648 | 34376 ft | 457 kts | 54° |
| 2026-05-07 16:10 | 17.19960 | -65.25834 | 33732 ft | 457 kts | 54° |
| 2026-05-07 16:11 | 17.21647 | -65.23019 | 33200 ft | 454 kts | 54° |
| 2026-05-07 16:11 | 17.23313 | -65.20236 | 32740 ft | 450 kts | 54° |
| 2026-05-07 16:11 | 17.24964 | -65.17475 | 32276 ft | 446 kts | 54° |
| 2026-05-07 16:11 | 17.26602 | -65.14737 | 31836 ft | 442 kts | 54° |
| 2026-05-07 16:12 | 17.28229 | -65.12017 | 31390 ft | 439 kts | 54° |
| 2026-05-07 16:12 | 17.29840 | -65.09323 | 30952 ft | 435 kts | 55° |
| 2026-05-07 16:12 | 17.31420 | -65.06681 | 30526 ft | 432 kts | 55° |
| 2026-05-07 16:12 | 17.33006 | -65.04027 | 30084 ft | 429 kts | 55° |
| 2026-05-07 16:13 | 17.34580 | -65.01393 | 29560 ft | 426 kts | 55° |
| 2026-05-07 16:13 | 17.36144 | -64.98774 | 29091 ft | 422 kts | 55° |
| 2026-05-07 16:13 | 17.37695 | -64.96176 | 28623 ft | 419 kts | 55° |
| 2026-05-07 16:13 | 17.39232 | -64.93601 | 28173 ft | 415 kts | 55° |
| 2026-05-07 16:14 | 17.40756 | -64.91046 | 27736 ft | 412 kts | 55° |
| 2026-05-07 16:14 | 17.42269 | -64.88509 | 27301 ft | 409 kts | 56° |
| 2026-05-07 16:14 | 17.43740 | -64.86040 | 26890 ft | 406 kts | 55° |
| 2026-05-07 16:14 | 17.45240 | -64.83523 | 26431 ft | 404 kts | 55° |
| 2026-05-07 16:15 | 17.46720 | -64.81037 | 26022 ft | 401 kts | 55° |
| 2026-05-07 16:15 | 17.48194 | -64.78562 | 25597 ft | 399 kts | 55° |
| 2026-05-07 16:15 | 17.49660 | -64.76099 | 25157 ft | 398 kts | 56° |
| 2026-05-07 16:15 | 17.51124 | -64.73640 | 24720 ft | 397 kts | 56° |
| 2026-05-07 16:16 | 17.52580 | -64.71192 | 24295 ft | 396 kts | 56° |
| 2026-05-07 16:16 | 17.54036 | -64.68742 | 23865 ft | 395 kts | 56° |
| 2026-05-07 16:16 | 17.55468 | -64.66333 | 23396 ft | 394 kts | 56° |
| 2026-05-07 16:16 | 17.56914 | -64.63898 | 22938 ft | 392 kts | 56° |
| 2026-05-07 16:17 | 17.58349 | -64.61481 | 22496 ft | 390 kts | 56° |
| 2026-05-07 16:17 | 17.59778 | -64.59074 | 22068 ft | 387 kts | 56° |
| 2026-05-07 16:17 | 17.61192 | -64.56690 | 21652 ft | 384 kts | 56° |
| 2026-05-07 16:17 | 17.62599 | -64.54318 | 21239 ft | 382 kts | 56° |
| 2026-05-07 16:18 | 17.63994 | -64.51965 | 20842 ft | 379 kts | 56° |
| 2026-05-07 16:18 | 17.65384 | -64.49620 | 20425 ft | 377 kts | 56° |
| 2026-05-07 16:18 | 17.66763 | -64.47293 | 20022 ft | 375 kts | 56° |
| 2026-05-07 16:18 | 17.68117 | -64.45007 | 19618 ft | 373 kts | 56° |
| 2026-05-07 16:19 | 17.69483 | -64.42702 | 19217 ft | 371 kts | 56° |
| 2026-05-07 16:19 | 17.70844 | -64.40401 | 18796 ft | 370 kts | 56° |
| 2026-05-07 16:19 | 17.72198 | -64.38114 | 18396 ft | 369 kts | 56° |
| 2026-05-07 16:19 | 17.73548 | -64.35830 | 17937 ft | 367 kts | 56° |
| 2026-05-07 16:20 | 17.74887 | -64.33565 | 17524 ft | 365 kts | 56° |
| 2026-05-07 16:20 | 17.76220 | -64.31309 | 17108 ft | 362 kts | 56° |
| 2026-05-07 16:20 | 17.77541 | -64.29075 | 16707 ft | 359 kts | 56° |
| 2026-05-07 16:20 | 17.78853 | -64.26853 | 16313 ft | 357 kts | 56° |
| 2026-05-07 16:21 | 17.80077 | -64.24632 | 15916 ft | 356 kts | 63° |
| 2026-05-07 16:21 | 17.80877 | -64.22179 | 15548 ft | 356 kts | 75° |
| 2026-05-07 16:21 | 17.81422 | -64.19655 | 15163 ft | 354 kts | 75° |
| 2026-05-07 16:21 | 17.81979 | -64.17142 | 14770 ft | 352 kts | 75° |
| 2026-05-07 16:22 | 17.82539 | -64.14647 | 14375 ft | 351 kts | 75° |
| 2026-05-07 16:22 | 17.83102 | -64.12155 | 13977 ft | 350 kts | 75° |
| 2026-05-07 16:22 | 17.83664 | -64.09676 | 13560 ft | 349 kts | 75° |
| 2026-05-07 16:22 | 17.84225 | -64.07207 | 13157 ft | 346 kts | 74° |
| 2026-05-07 16:23 | 17.84775 | -64.04792 | 12776 ft | 344 kts | 74° |
| 2026-05-07 16:23 | 17.85331 | -64.02352 | 12379 ft | 342 kts | 75° |
| 2026-05-07 16:23 | 17.85879 | -63.99932 | 11996 ft | 340 kts | 76° |
| 2026-05-07 16:23 | 17.86426 | -63.97524 | 11613 ft | 338 kts | 75° |
| 2026-05-07 16:24 | 17.86972 | -63.95127 | 11232 ft | 336 kts | 75° |
| 2026-05-07 16:24 | 17.87512 | -63.92747 | 10858 ft | 335 kts | 75° |
| 2026-05-07 16:24 | 17.88047 | -63.90385 | 10635 ft | 328 kts | 75° |
| 2026-05-07 16:24 | 17.88561 | -63.88113 | 10463 ft | 320 kts | 75° |
| 2026-05-07 16:25 | 17.89069 | -63.85872 | 10318 ft | 312 kts | 76° |
| 2026-05-07 16:25 | 17.89564 | -63.83685 | 10189 ft | 303 kts | 75° |
| 2026-05-07 16:25 | 17.90045 | -63.81560 | 10044 ft | 296 kts | 76° |
| 2026-05-07 16:25 | 17.90512 | -63.79491 | 9822 ft | 291 kts | 76° |
| 2026-05-07 16:26 | 17.90983 | -63.77412 | 9474 ft | 292 kts | 76° |
| 2026-05-07 16:26 | 17.91454 | -63.75328 | 9125 ft | 292 kts | 76° |
| 2026-05-07 16:26 | 17.91921 | -63.73260 | 8839 ft | 291 kts | 76° |
| 2026-05-07 16:26 | 17.92230 | -63.71892 | 8640 ft | 290 kts | 75° |
| 2026-05-07 16:27 | 17.93246 | -63.67388 | 7998 ft | 287 kts | 76° |
| 2026-05-07 16:27 | 17.93697 | -63.65358 | 7709 ft | 285 kts | 76° |
| 2026-05-07 16:27 | 17.94137 | -63.63331 | 7418 ft | 284 kts | 77° |
| 2026-05-07 16:28 | 17.94571 | -63.61318 | 7134 ft | 282 kts | 77° |
| 2026-05-07 16:28 | 17.95003 | -63.59313 | 6857 ft | 280 kts | 76° |
| 2026-05-07 16:28 | 17.95430 | -63.57335 | 6580 ft | 279 kts | 77° |
| 2026-05-07 16:28 | 17.95852 | -63.55380 | 6273 ft | 278 kts | 77° |
| 2026-05-07 16:29 | 17.96278 | -63.53403 | 5990 ft | 276 kts | 77° |
| 2026-05-07 16:29 | 17.96700 | -63.51443 | 5708 ft | 275 kts | 76° |
| 2026-05-07 16:29 | 17.97120 | -63.49497 | 5415 ft | 274 kts | 77° |
| 2026-05-07 16:29 | 17.97539 | -63.47554 | 5140 ft | 272 kts | 76° |
| 2026-05-07 16:30 | 17.97954 | -63.45627 | 4853 ft | 271 kts | 76° |
| 2026-05-07 16:30 | 17.98369 | -63.43702 | 4488 ft | 267 kts | 77° |
| 2026-05-07 16:30 | 17.98774 | -63.41823 | 4222 ft | 261 kts | 77° |
| 2026-05-07 16:30 | 17.99169 | -63.39987 | 4020 ft | 252 kts | 77° |
| 2026-05-07 16:31 | 17.99545 | -63.38236 | 3905 ft | 240 kts | 77° |
| 2026-05-07 16:31 | 17.99901 | -63.36581 | 3801 ft | 230 kts | 77° |
| 2026-05-07 16:31 | 18.00244 | -63.34986 | 3724 ft | 217 kts | 77° |
| 2026-05-07 16:31 | 18.00571 | -63.33463 | 3655 ft | 210 kts | 77° |
| 2026-05-07 16:32 | 18.00884 | -63.32006 | 3503 ft | 199 kts | 77° |
| 2026-05-07 16:32 | 18.01180 | -63.30629 | 3309 ft | 188 kts | 77° |
| 2026-05-07 16:32 | 18.01447 | -63.29313 | 3103 ft | 182 kts | 80° |
| 2026-05-07 16:32 | 18.01651 | -63.27998 | 3047 ft | 184 kts | 82° |
| 2026-05-07 16:33 | 18.01839 | -63.26677 | 2828 ft | 187 kts | 82° |
| 2026-05-07 16:33 | 18.02030 | -63.25332 | 2583 ft | 185 kts | 81° |
| 2026-05-07 16:33 | 18.02216 | -63.24030 | 2360 ft | 177 kts | 83° |
| 2026-05-07 16:33 | 18.02392 | -63.22795 | 2120 ft | 166 kts | 82° |
| 2026-05-07 16:34 | 18.02555 | -63.21654 | 1908 ft | 149 kts | 82° |
| 2026-05-07 16:34 | 18.02706 | -63.20599 | 1714 ft | 147 kts | 82° |
| 2026-05-07 16:34 | 18.02857 | -63.19535 | 1529 ft | 147 kts | 82° |
| 2026-05-07 16:34 | 18.03006 | -63.18493 | 1326 ft | 140 kts | 82° |
| 2026-05-07 16:35 | 18.03151 | -63.17482 | 1161 ft | 142 kts | 83° |
| 2026-05-07 16:35 | 18.03299 | -63.16445 | 961 ft | 144 kts | 83° |
| 2026-05-07 16:35 | 18.03443 | -63.15441 | 782 ft | 141 kts | 82° |
| 2026-05-07 16:35 | 18.03588 | -63.14423 | 623 ft | 142 kts | 82° |
| 2026-05-07 16:36 | 18.03744 | -63.13391 | 394 ft | 142 kts | 81° |
| 2026-05-07 16:36 | 18.03890 | -63.12354 | 202 ft | 145 kts | 83° |
| 2026-05-07 16:36 | 18.04030 | -63.11317 | 50 ft | 140 kts | 83° |
| 2026-05-07 16:36 | 18.04162 | -63.10369 | 19 ft | 98 kts | 81° |
| 2026-05-07 16:37 | 18.04211 | -63.10051 | 18 ft | 2 kts | 78° |
| 2026-05-07 16:37 | 18.04219 | -63.10012 | 18 ft | 12 kts | 76° |
| 2026-05-07 16:37 | 18.04261 | -63.09916 | 19 ft | 6 kts | 81° |
| 2026-05-07 16:37 | 18.04234 | -63.09901 | 19 ft | 4 kts | 203° |
| 2026-05-07 16:38 | 18.04225 | -63.09943 | 21 ft | 12 kts | 267° |
| 2026-05-07 16:38 | 18.04211 | -63.10073 | 18 ft | 21 kts | 261° |
| 2026-05-07 16:38 | 18.04190 | -63.10221 | 18 ft | 20 kts | 261° |
| 2026-05-07 16:38 | 18.04170 | -63.10365 | 19 ft | 20 kts | 261° |
| 2026-05-07 16:39 | 18.04149 | -63.10504 | 21 ft | 19 kts | 261° |
| 2026-05-07 16:39 | 18.04130 | -63.10636 | 24 ft | 18 kts | 261° |
| 2026-05-07 16:39 | 18.04112 | -63.10766 | 24 ft | 18 kts | 262° |
| 2026-05-07 16:39 | 18.04094 | -63.10892 | 25 ft | 17 kts | 261° |
| 2026-05-07 16:40 | 18.04076 | -63.11013 | 26 ft | 16 kts | 262° |
| 2026-05-07 16:40 | 18.04073 | -63.11129 | 22 ft | 16 kts | 296° |
| 2026-05-07 16:40 | 18.04142 | -63.11204 | 20 ft | 15 kts | 278° |
| 2026-05-07 16:40 | 18.04162 | -63.11297 | 20 ft | 14 kts | 338° |
| 2026-05-07 16:41 | 18.04257 | -63.11305 | 23 ft | 14 kts | 21° |
| 2026-05-07 16:41 | 18.04330 | -63.11291 | 20 ft | 7 kts | 349° |
| 2026-05-07 16:41 | 18.04336 | -63.11293 | 20 ft | 0 kts | 348° |